Time;durP1;ratioP1;P1;durP2;ratioP2;P2;SDS_P1;SDS_P2;PMS_P1;PMS_P2;Temp;Humidity;BMP_temperature;BMP_pressure;BME280_temperature;BME280_humidity;BME280_pressure;Samples;Min_cycle;Max_cycle;Signal;HPM_P1;HPM_P2
2022/09/24 00:01:25;;;;;;;19.42;10.27;;;14.70;60.10;;;;;;5096639;28;20382;-76
2022/09/24 00:03:59;;;;;;;20.50;13.40;;;14.60;61.40;;;;;;5097347;28;20757;-76
2022/09/24 00:06:26;;;;;;;17.27;10.13;;;14.50;61.70;;;;;;5096780;28;20508;-76
2022/09/24 00:08:54;;;;;;;17.00;10.20;;;14.30;62.90;;;;;;5099054;28;20408;-76
2022/09/24 00:11:20;;;;;;;15.57;10.70;;;14.30;64.10;;;;;;5097441;28;20447;-75
2022/09/24 00:13:48;;;;;;;17.02;9.98;;;14.20;65.30;;;;;;5098600;28;20382;-75
2022/09/24 00:16:16;;;;;;;15.27;9.80;;;14.10;66.20;;;;;;5097518;28;20403;-76
2022/09/24 00:18:42;;;;;;;16.83;10.80;;;14.10;67.00;;;;;;5093736;28;20436;-75
2022/09/24 00:21:21;;;;;;;17.23;10.93;;;14.10;67.50;;;;;;5094523;28;20382;-76
2022/09/24 00:26:48;;;;;;;14.50;10.63;;;14.10;68.30;;;;;;5096421;28;20431;-76
2022/09/24 00:26:59;;;;;;;14.68;9.80;;;14.00;69.20;;;;;;5095964;28;20465;-76
2022/09/24 00:29:25;;;;;;;16.55;9.88;;;14.10;68.80;;;;;;5103606;28;20378;-75
2022/09/24 00:31:51;;;;;;;14.20;9.87;;;14.20;68.40;;;;;;5110363;28;20514;-73
2022/09/24 00:34:18;;;;;;;18.98;11.70;;;14.20;69.00;;;;;;5097581;28;20382;-74
2022/09/24 00:36:45;;;;;;;17.95;10.98;;;14.10;69.30;;;;;;5095206;28;20397;-77
2022/09/24 00:39:10;;;;;;;19.00;11.30;;;14.00;71.00;;;;;;5095846;28;20432;-76
2022/09/24 00:41:37;;;;;;;18.20;11.37;;;13.90;72.40;;;;;;5097235;28;20405;-76
2022/09/24 00:44:41;;;;;;;17.75;11.32;;;13.90;73.30;;;;;;5095921;28;20459;-77
2022/09/24 00:47:34;;;;;;;14.17;10.00;;;13.90;74.00;;;;;;5098105;28;20445;-76
2022/09/24 00:50:13;;;;;;;14.75;10.05;;;13.90;74.50;;;;;;5095858;28;20393;-75
2022/09/24 00:52:44;;;;;;;17.95;10.10;;;14.00;75.10;;;;;;5098880;28;20464;-77
2022/09/24 00:55:11;;;;;;;14.30;9.45;;;14.00;75.00;;;;;;5099001;28;20378;-77
2022/09/24 00:57:38;;;;;;;15.20;10.45;;;14.10;74.40;;;;;;5099604;28;20398;-76
2022/09/24 01:00:06;;;;;;;19.70;9.88;;;14.10;73.50;;;;;;5100414;28;20392;-76
2022/09/24 01:02:34;;;;;;;18.25;9.70;;;14.10;73.90;;;;;;5100884;28;20385;-76
2022/09/24 01:05:00;;;;;;;19.48;10.20;;;14.10;73.80;;;;;;5116847;28;20398;-75
2022/09/24 01:07:26;;;;;;;18.52;9.75;;;14.00;74.70;;;;;;5096077;28;20469;-76
2022/09/24 01:09:51;;;;;;;15.47;9.57;;;14.00;75.20;;;;;;5098579;28;20473;-76
2022/09/24 01:12:20;;;;;;;17.80;10.40;;;14.00;75.90;;;;;;5113917;28;20386;-75
2022/09/24 01:15:20;;;;;;;20.83;11.07;;;13.90;76.60;;;;;;5097356;28;20378;-77
2022/09/24 01:18:04;;;;;;;18.90;10.90;;;13.90;76.70;;;;;;5085320;28;20442;-76
2022/09/24 01:20:52;;;;;;;14.13;9.40;;;13.90;77.00;;;;;;5097035;28;20406;-75
2022/09/24 01:23:26;;;;;;;14.88;8.90;;;13.90;78.10;;;;;;5097599;28;20469;-75
2022/09/24 01:25:58;;;;;;;20.73;9.90;;;13.80;78.60;;;;;;5096674;28;20431;-75
2022/09/24 01:28:32;;;;;;;14.90;10.20;;;13.90;78.00;;;;;;5096475;28;20458;-77
2022/09/24 01:31:04;;;;;;;14.45;9.95;;;13.90;78.70;;;;;;5096452;28;20957;-76
2022/09/24 01:33:34;;;;;;;19.57;9.90;;;13.80;78.70;;;;;;5100481;28;20381;-76
2022/09/24 01:36:07;;;;;;;15.73;10.00;;;13.80;79.70;;;;;;5099124;28;20461;-74
2022/09/24 01:38:37;;;;;;;22.33;12.80;;;13.70;80.40;;;;;;5113492;28;20869;-75
2022/09/24 01:41:06;;;;;;;19.17;11.77;;;13.70;81.30;;;;;;5098968;28;20459;-76
2022/09/24 01:43:32;;;;;;;18.52;12.65;;;13.70;81.10;;;;;;5096409;28;20386;-77
2022/09/24 01:46:01;;;;;;;17.30;10.70;;;13.70;81.20;;;;;;5097433;28;20370;-76
2022/09/24 01:48:27;;;;;;;16.30;10.77;;;13.60;81.10;;;;;;5097025;28;20377;-75
2022/09/24 01:51:26;;;;;;;14.55;10.70;;;13.70;81.90;;;;;;5095738;28;20394;-76
2022/09/24 01:54:23;;;;;;;15.85;10.68;;;13.60;82.60;;;;;;5097215;28;20382;-77
2022/09/24 01:56:58;;;;;;;19.75;11.90;;;13.60;83.50;;;;;;5096826;28;20385;-75
2022/09/24 01:59:39;;;;;;;17.83;11.85;;;13.70;82.70;;;;;;5099548;28;20398;-75
2022/09/24 02:02:26;;;;;;;14.13;10.48;;;13.80;81.80;;;;;;5114885;28;20378;-75
2022/09/24 02:05:11;;;;;;;14.68;11.35;;;13.90;80.50;;;;;;5098002;28;20397;-77
2022/09/24 02:07:59;;;;;;;17.20;11.20;;;13.80;80.80;;;;;;5096856;28;20382;-76
2022/09/24 02:10:31;;;;;;;16.65;11.50;;;13.70;82.10;;;;;;5095838;28;20809;-76
2022/09/24 02:13:02;;;;;;;20.95;11.77;;;13.70;82.90;;;;;;5095937;28;20382;-76
2022/09/24 02:15:32;;;;;;;17.27;11.38;;;13.70;83.50;;;;;;5096010;28;20393;-76
2022/09/24 02:18:04;;;;;;;23.00;10.77;;;13.70;84.20;;;;;;5094402;28;20402;-74
2022/09/24 02:20:31;;;;;;;16.48;11.77;;;13.60;84.40;;;;;;5095731;28;20800;-75
2022/09/24 02:22:56;;;;;;;20.15;11.02;;;13.70;84.80;;;;;;5093430;28;20413;-75
2022/09/24 02:25:41;;;;;;;17.83;11.57;;;13.70;84.80;;;;;;5093397;28;20400;-77
2022/09/24 02:28:07;;;;;;;16.40;10.80;;;13.60;84.70;;;;;;5093697;28;20444;-77
2022/09/24 02:30:39;;;;;;;19.30;11.47;;;13.70;85.80;;;;;;5093459;28;20405;-76
2022/09/24 02:34:19;;;;;;;15.57;11.43;;;13.70;85.60;;;;;;5093639;28;20378;-75
2022/09/24 02:35:53;;;;;;;17.65;11.55;;;13.70;84.10;;;;;;5093824;28;20397;-76
2022/09/24 02:38:19;;;;;;;22.63;11.50;;;13.70;84.50;;;;;;5092876;28;21086;-75
2022/09/24 02:40:46;;;;;;;20.97;12.00;;;13.70;85.00;;;;;;5093403;28;20397;-75
2022/09/24 02:43:12;;;;;;;17.48;11.70;;;13.70;85.70;;;;;;5096188;28;20441;-75
2022/09/24 02:45:37;;;;;;;15.77;10.90;;;13.70;86.20;;;;;;5096463;28;20438;-75
2022/09/24 02:48:03;;;;;;;17.43;11.83;;;13.70;85.70;;;;;;5096920;28;20394;-77
2022/09/24 02:50:28;;;;;;;19.13;12.10;;;13.80;83.50;;;;;;5112301;28;20414;-77
2022/09/24 02:52:54;;;;;;;20.57;12.27;;;13.80;84.00;;;;;;5096809;28;20379;-77
2022/09/24 02:55:20;;;;;;;19.15;12.02;;;13.70;84.60;;;;;;5100063;28;20378;-76
2022/09/24 02:57:46;;;;;;;19.77;12.55;;;13.70;85.50;;;;;;5098884;28;20485;-77
2022/09/24 03:00:12;;;;;;;16.65;10.55;;;13.60;86.20;;;;;;5101193;28;20937;-77
2022/09/24 03:02:38;;;;;;;18.70;11.68;;;13.70;86.70;;;;;;5104173;28;20389;-76
2022/09/24 03:05:03;;;;;;;16.47;10.60;;;13.60;86.60;;;;;;5101506;28;20485;-75
2022/09/24 03:07:29;;;;;;;21.00;12.13;;;13.60;87.40;;;;;;5101957;28;20390;-76
2022/09/24 03:09:55;;;;;;;19.23;11.93;;;13.50;88.60;;;;;;5104606;28;20410;-77
2022/09/24 03:12:20;;;;;;;17.38;11.40;;;13.40;89.20;;;;;;5098435;28;20381;-76
2022/09/24 03:14:46;;;;;;;19.40;11.55;;;13.40;89.90;;;;;;5098449;28;20457;-76
2022/09/24 03:17:11;;;;;;;16.05;10.40;;;13.30;90.90;;;;;;5097402;28;20389;-75
2022/09/24 03:19:37;;;;;;;19.00;11.57;;;13.30;91.30;;;;;;5097154;28;20406;-76
2022/09/24 03:22:02;;;;;;;17.37;11.80;;;13.30;91.90;;;;;;5112653;28;20882;-75
2022/09/24 03:24:28;;;;;;;17.23;11.87;;;13.30;92.50;;;;;;5097965;28;20474;-77
2022/09/24 03:26:54;;;;;;;17.27;11.73;;;13.30;93.10;;;;;;5098239;28;20389;-76
2022/09/24 03:30:58;;;;;;;18.70;12.57;;;13.40;90.50;;;;;;5097432;28;20487;-80
2022/09/24 03:32:05;;;;;;;16.20;11.55;;;13.40;90.30;;;;;;5097275;28;20424;-76
2022/09/24 03:34:31;;;;;;;15.95;11.20;;;13.30;91.20;;;;;;5097556;28;20378;-76
2022/09/24 03:36:56;;;;;;;17.75;11.20;;;13.20;92.50;;;;;;5097044;28;20390;-75
2022/09/24 03:39:22;;;;;;;18.30;11.50;;;13.20;93.50;;;;;;5096875;28;20440;-77
2022/09/24 03:41:47;;;;;;;15.53;11.70;;;13.20;93.60;;;;;;5096882;28;20381;-77
2022/09/24 03:44:13;;;;;;;16.48;10.95;;;13.20;93.60;;;;;;5097231;28;20378;-76
2022/09/24 03:46:38;;;;;;;18.02;11.38;;;13.20;93.20;;;;;;5096118;28;20382;-77
2022/09/24 03:49:04;;;;;;;20.53;11.10;;;13.10;93.80;;;;;;5095674;28;20386;-77
2022/09/24 03:51:29;;;;;;;17.90;12.20;;;13.20;93.00;;;;;;5095471;28;20382;-76
2022/09/24 03:53:55;;;;;;;16.83;10.90;;;13.10;92.90;;;;;;5095935;28;20400;-77
2022/09/24 03:56:20;;;;;;;17.15;12.10;;;13.20;93.00;;;;;;5096595;28;20385;-77
2022/09/24 03:58:46;;;;;;;20.93;11.90;;;13.10;93.20;;;;;;5097498;28;20405;-77
2022/09/24 04:01:12;;;;;;;15.65;10.93;;;13.10;93.80;;;;;;5097804;28;20969;-75
2022/09/24 04:03:39;;;;;;;16.88;12.05;;;13.00;94.00;;;;;;5097055;28;20385;-73
2022/09/24 04:06:05;;;;;;;20.30;11.60;;;13.00;94.30;;;;;;5092693;28;20427;-75
2022/09/24 04:08:31;;;;;;;15.52;11.25;;;13.00;95.60;;;;;;5092786;28;20382;-74
2022/09/24 04:10:57;;;;;;;23.17;13.20;;;13.00;96.60;;;;;;5091329;28;20386;-74
2022/09/24 04:13:23;;;;;;;17.67;11.95;;;13.00;96.10;;;;;;5093080;28;20390;-74
2022/09/24 04:15:49;;;;;;;18.40;11.80;;;13.00;95.30;;;;;;5091190;28;20381;-75
2022/09/24 04:18:15;;;;;;;15.38;10.77;;;12.90;95.80;;;;;;5092731;28;20763;-74
2022/09/24 04:20:41;;;;;;;19.13;12.07;;;12.90;96.40;;;;;;5093285;28;20427;-74
2022/09/24 04:23:07;;;;;;;16.93;11.27;;;12.90;95.90;;;;;;5092735;28;20370;-75
2022/09/24 04:25:33;;;;;;;21.15;12.20;;;13.00;94.60;;;;;;5092820;28;20366;-75
2022/09/24 04:28:04;;;;;;;20.02;11.52;;;13.00;93.90;;;;;;5092902;28;20371;-75
2022/09/24 04:30:30;;;;;;;17.90;12.20;;;13.00;93.90;;;;;;5093144;28;20473;-75
2022/09/24 04:32:59;;;;;;;21.40;12.70;;;13.00;93.40;;;;;;5092956;28;20496;-76
2022/09/24 04:35:26;;;;;;;21.98;12.50;;;12.90;93.20;;;;;;5093479;28;20481;-76
2022/09/24 04:37:52;;;;;;;18.65;11.90;;;13.00;92.80;;;;;;5092384;28;20485;-75
2022/09/24 04:40:17;;;;;;;18.73;12.03;;;13.00;91.50;;;;;;5092850;28;20858;-76
2022/09/24 04:42:45;;;;;;;18.20;12.20;;;13.00;91.00;;;;;;5092724;28;20458;-76
2022/09/24 04:45:12;;;;;;;22.60;12.55;;;13.00;90.90;;;;;;5092975;28;20386;-76
2022/09/24 04:47:41;;;;;;;17.90;12.57;;;13.00;91.40;;;;;;5092979;28;20378;-76
2022/09/24 04:50:08;;;;;;;21.27;12.70;;;13.00;91.50;;;;;;5093049;28;20385;-76
2022/09/24 04:52:34;;;;;;;22.58;13.30;;;13.00;91.80;;;;;;5092976;28;20902;-74
2022/09/24 04:55:00;;;;;;;19.30;11.50;;;13.00;91.90;;;;;;5092620;28;20421;-76
2022/09/24 04:57:27;;;;;;;18.05;12.55;;;13.10;90.90;;;;;;5092210;28;20886;-75
2022/09/24 04:59:53;;;;;;;21.33;13.35;;;13.10;91.00;;;;;;5092798;28;20381;-75
2022/09/24 05:02:19;;;;;;;21.25;13.27;;;13.00;90.90;;;;;;5092365;28;20779;-77
2022/09/24 05:04:45;;;;;;;18.57;11.93;;;13.00;91.40;;;;;;5092086;28;20804;-75
2022/09/24 05:07:10;;;;;;;18.48;13.20;;;13.00;92.30;;;;;;5092334;28;20739;-74
2022/09/24 05:09:36;;;;;;;21.92;13.30;;;13.00;93.00;;;;;;5092099;28;20468;-76
2022/09/24 05:12:10;;;;;;;17.88;12.20;;;13.00;94.50;;;;;;5091990;28;20386;-75
2022/09/24 05:14:36;;;;;;;24.38;12.90;;;12.90;94.90;;;;;;5092229;28;20943;-75
2022/09/24 05:17:01;;;;;;;17.77;12.43;;;13.00;94.80;;;;;;5092117;28;20381;-75
2022/09/24 05:19:27;;;;;;;19.03;12.23;;;13.00;94.90;;;;;;5092876;28;20458;-73
2022/09/24 05:21:52;;;;;;;20.83;12.60;;;12.90;95.80;;;;;;5093009;28;20397;-73
2022/09/24 05:24:18;;;;;;;18.60;12.48;;;12.90;96.50;;;;;;5091765;28;20384;-76
2022/09/24 05:29:28;;;;;;;23.05;12.80;;;12.90;97.30;;;;;;5092887;28;20385;-76
2022/09/24 05:31:53;;;;;;;24.52;12.88;;;12.80;97.80;;;;;;5092176;28;20382;-73
2022/09/24 05:34:19;;;;;;;18.88;13.18;;;12.80;97.40;;;;;;5107917;28;20505;-75
2022/09/24 05:36:44;;;;;;;19.25;12.80;;;12.90;97.60;;;;;;5092030;28;20421;-74
2022/09/24 05:39:12;;;;;;;20.40;12.80;;;13.00;95.40;;;;;;5092089;28;20402;-75
2022/09/24 05:41:38;;;;;;;18.75;13.02;;;13.10;94.70;;;;;;5091395;28;20806;-76
2022/09/24 05:44:04;;;;;;;22.48;13.13;;;13.10;93.60;;;;;;5092038;28;20740;-75
2022/09/24 05:46:30;;;;;;;18.55;13.27;;;13.00;94.40;;;;;;5097600;28;20378;-76
2022/09/24 05:48:55;;;;;;;19.50;12.18;;;13.00;94.90;;;;;;5105483;28;20434;-74
2022/09/24 05:51:21;;;;;;;23.02;12.55;;;12.90;95.40;;;;;;5096525;28;20894;-74
2022/09/24 05:53:47;;;;;;;21.13;13.40;;;12.90;96.00;;;;;;5092259;28;20465;-75
2022/09/24 05:56:13;;;;;;;19.80;13.20;;;12.90;97.00;;;;;;5091987;28;20389;-74
2022/09/24 05:58:38;;;;;;;19.98;12.82;;;13.00;97.80;;;;;;5091649;28;20413;-74
2022/09/24 06:01:04;;;;;;;16.92;12.40;;;13.00;97.30;;;;;;5073659;28;21012;-74
2022/09/24 06:03:30;;;;;;;18.52;13.55;;;13.00;97.70;;;;;;5091480;28;20423;-74
2022/09/24 06:06:00;;;;;;;21.67;13.38;;;13.10;97.70;;;;;;5091405;28;20747;-74
2022/09/24 06:08:27;;;;;;;18.92;13.27;;;13.10;97.30;;;;;;5090196;28;20393;-75
2022/09/24 06:10:58;;;;;;;16.45;12.60;;;13.20;94.70;;;;;;5091303;28;20729;-75
2022/09/24 06:13:24;;;;;;;18.50;13.43;;;13.30;94.30;;;;;;5089957;28;20394;-75
2022/09/24 06:15:49;;;;;;;22.50;13.27;;;13.30;93.00;;;;;;5092736;28;20393;-75
2022/09/24 06:18:15;;;;;;;28.50;14.50;;;13.40;92.30;;;;;;5095608;28;20452;-74
2022/09/24 06:20:40;;;;;;;17.97;12.70;;;13.40;92.10;;;;;;5094027;28;20382;-75
2022/09/24 06:23:06;;;;;;;21.27;13.48;;;13.40;90.40;;;;;;5094958;28;20377;-76
2022/09/24 06:25:32;;;;;;;18.33;13.38;;;13.50;90.10;;;;;;5094656;28;20382;-75
2022/09/24 06:28:00;;;;;;;18.60;13.70;;;13.60;88.90;;;;;;5095057;28;20385;-75
2022/09/24 06:30:34;;;;;;;21.42;13.35;;;13.80;87.30;;;;;;5094588;28;20392;-75
2022/09/24 06:33:04;;;;;;;19.27;12.80;;;13.90;83.90;;;;;;5094288;28;20878;-74
2022/09/24 06:35:34;;;;;;;21.45;12.55;;;14.00;81.40;;;;;;5093433;28;20405;-75
2022/09/24 06:38:01;;;;;;;17.85;12.30;;;14.10;77.50;;;;;;5095408;28;20451;-75
2022/09/24 06:40:27;;;;;;;19.08;11.93;;;14.30;76.40;;;;;;5095852;28;20452;-76
2022/09/24 06:42:52;;;;;;;23.20;12.80;;;14.50;75.50;;;;;;5094833;28;20862;-75
2022/09/24 06:45:20;;;;;;;19.30;12.55;;;14.50;74.10;;;;;;5094907;28;20374;-75
2022/09/24 06:47:52;;;;;;;16.77;12.37;;;14.70;73.80;;;;;;5094905;28;20432;-74
2022/09/24 06:50:18;;;;;;;25.23;13.30;;;14.80;72.80;;;;;;5094514;28;20382;-75
2022/09/24 06:52:44;;;;;;;19.80;12.83;;;14.90;67.60;;;;;;5093262;28;20724;-75
2022/09/24 06:55:09;;;;;;;18.73;12.60;;;15.10;65.80;;;;;;5095792;28;20743;-75
2022/09/24 06:57:35;;;;;;;17.05;12.15;;;15.40;62.30;;;;;;5100819;28;20731;-75
2022/09/24 07:00:01;;;;;;;20.35;13.23;;;15.30;61.40;;;;;;5096178;28;20874;-74
2022/09/24 07:02:27;;;;;;;18.42;12.77;;;15.30;61.50;;;;;;5094849;28;20481;-75
2022/09/24 07:04:52;;;;;;;19.35;14.00;;;15.20;62.30;;;;;;5094801;28;20743;-74
2022/09/24 07:07:33;;;;;;;23.83;14.07;;;15.10;63.00;;;;;;5094558;28;20378;-75
2022/09/24 07:10:05;;;;;;;20.88;14.48;;;15.20;62.60;;;;;;5094139;28;20479;-75
2022/09/24 07:12:32;;;;;;;21.70;15.70;;;15.20;62.40;;;;;;5093915;28;20385;-74
2022/09/24 07:14:57;;;;;;;21.90;15.90;;;15.20;61.30;;;;;;5093657;28;20878;-75
2022/09/24 07:17:24;;;;;;;24.42;18.27;;;15.10;62.00;;;;;;5092344;28;20409;-74
2022/09/24 07:19:49;;;;;;;27.50;19.00;;;15.00;63.00;;;;;;5093708;28;20394;-74
2022/09/24 07:22:15;;;;;;;23.05;17.42;;;15.00;63.30;;;;;;5093817;28;20378;-75
2022/09/24 07:24:41;;;;;;;23.47;17.10;;;15.10;62.00;;;;;;5094329;28;20500;-75
2022/09/24 07:27:07;;;;;;;21.52;17.48;;;15.00;63.20;;;;;;5095633;28;20385;-75
2022/09/24 07:29:34;;;;;;;19.40;15.57;;;15.00;63.60;;;;;;5094660;28;20443;-75
2022/09/24 07:31:59;;;;;;;21.38;15.30;;;15.10;63.40;;;;;;5094538;28;20378;-76
2022/09/24 07:34:25;;;;;;;18.10;14.20;;;15.20;63.00;;;;;;5093175;28;20389;-75
2022/09/24 07:36:51;;;;;;;23.05;14.55;;;15.30;62.10;;;;;;5093107;28;20389;-76
2022/09/24 07:39:17;;;;;;;21.33;15.90;;;15.40;60.60;;;;;;5093102;28;20758;-74
2022/09/24 07:41:42;;;;;;;21.85;15.32;;;15.60;59.30;;;;;;5092826;28;20382;-75
2022/09/24 07:44:08;;;;;;;20.88;15.98;;;15.60;58.80;;;;;;5092959;28;20390;-74
2022/09/24 07:46:35;;;;;;;23.17;15.85;;;15.80;57.10;;;;;;5091877;28;20386;-75
2022/09/24 07:49:00;;;;;;;22.88;15.50;;;15.80;55.70;;;;;;5093273;28;20386;-75
2022/09/24 07:51:27;;;;;;;25.05;16.75;;;15.90;55.90;;;;;;5092559;28;20478;-75
2022/09/24 07:53:54;;;;;;;22.13;17.05;;;16.00;55.00;;;;;;5092895;28;20469;-74
2022/09/24 07:56:20;;;;;;;24.35;17.55;;;16.00;54.10;;;;;;5092871;28;20382;-75
2022/09/24 07:58:50;;;;;;;25.23;20.83;;;16.10;53.90;;;;;;5092692;28;20851;-74
2022/09/24 08:01:17;;;;;;;29.42;22.77;;;16.10;53.50;;;;;;5092496;28;20469;-75
2022/09/24 08:03:44;;;;;;;28.02;21.20;;;16.30;52.90;;;;;;5092657;28;20397;-73
2022/09/24 08:06:10;;;;;;;30.63;24.45;;;16.50;52.20;;;;;;5093068;28;20378;-76
2022/09/24 08:08:37;;;;;;;32.33;24.83;;;16.50;51.10;;;;;;5091751;28;20386;-75
2022/09/24 08:11:07;;;;;;;33.75;26.70;;;16.60;51.20;;;;;;5092775;28;20382;-73
2022/09/24 08:13:33;;;;;;;34.90;26.42;;;16.70;50.40;;;;;;5093035;28;20397;-72
2022/09/24 08:16:00;;;;;;;32.47;26.13;;;16.70;49.70;;;;;;5090900;28;20398;-75
2022/09/24 08:18:27;;;;;;;36.63;28.07;;;16.80;49.80;;;;;;5092183;28;20755;-76
2022/09/24 08:20:53;;;;;;;38.28;27.98;;;16.80;49.00;;;;;;5093974;28;20532;-76
2022/09/24 08:23:19;;;;;;;32.20;25.03;;;16.90;49.00;;;;;;5093365;28;20370;-76
2022/09/24 08:25:45;;;;;;;28.80;23.45;;;16.90;49.10;;;;;;5109587;28;20817;-76
2022/09/24 08:28:11;;;;;;;32.60;24.27;;;17.10;48.40;;;;;;5093715;28;20923;-77
2022/09/24 08:30:41;;;;;;;28.30;22.70;;;17.10;48.50;;;;;;5093721;28;20386;-76
2022/09/24 08:33:07;;;;;;;26.98;22.98;;;17.00;48.10;;;;;;5092217;28;20393;-71
2022/09/24 08:35:33;;;;;;;28.73;22.23;;;17.10;47.30;;;;;;5092464;28;20374;-73
2022/09/24 08:38:00;;;;;;;30.48;21.88;;;17.20;46.80;;;;;;5089648;28;20732;-72
2022/09/24 08:40:30;;;;;;;26.38;20.20;;;17.40;45.40;;;;;;5089062;28;20406;-71
2022/09/24 08:43:09;;;;;;;26.75;19.38;;;17.30;45.30;;;;;;5089536;28;20410;-73
2022/09/24 08:48:31;;;;;;;32.80;21.23;;;17.40;44.40;;;;;;5089973;28;20476;-73
2022/09/24 08:51:04;;;;;;;24.30;19.00;;;17.40;44.90;;;;;;5087548;28;20396;-72
2022/09/24 08:54:01;;;;;;;27.80;18.97;;;17.40;44.20;;;;;;5088576;28;20393;-72
2022/09/24 08:56:31;;;;;;;26.80;19.33;;;17.70;43.20;;;;;;5088128;28;20388;-74
2022/09/24 08:59:08;;;;;;;27.50;20.10;;;17.70;42.40;;;;;;5090055;28;20428;-73
2022/09/24 09:02:05;;;;;;;26.00;18.60;;;17.90;41.70;;;;;;5088556;28;20469;-73
2022/09/24 09:05:08;;;;;;;28.83;19.58;;;18.00;42.10;;;;;;5080082;28;20416;-74
2022/09/24 09:07:52;;;;;;;31.23;20.33;;;18.10;41.00;;;;;;5088258;28;20381;-73
2022/09/24 09:10:27;;;;;;;28.15;20.60;;;18.10;40.80;;;;;;5090671;28;20393;-73
2022/09/24 09:12:58;;;;;;;28.95;20.15;;;18.30;40.50;;;;;;5088845;28;20386;-74
2022/09/24 09:15:28;;;;;;;29.27;21.50;;;18.30;39.90;;;;;;5089751;28;20445;-71
2022/09/24 09:18:01;;;;;;;31.40;21.63;;;18.40;39.20;;;;;;5089312;28;20398;-72
2022/09/24 09:20:48;;;;;;;27.75;19.67;;;18.40;39.20;;;;;;5089992;28;20378;-72
2022/09/24 09:23:20;;;;;;;29.67;20.48;;;18.60;39.00;;;;;;5089812;28;20382;-73
2022/09/24 09:25:53;;;;;;;28.90;19.57;;;18.80;38.60;;;;;;5089559;28;20427;-72
2022/09/24 09:28:19;;;;;;;32.45;21.15;;;19.00;37.20;;;;;;5091467;28;20441;-72
2022/09/24 09:31:11;;;;;;;28.50;20.67;;;19.10;35.90;;;;;;5091510;28;20414;-72
2022/09/24 09:33:42;;;;;;;32.70;21.58;;;19.10;36.10;;;;;;5086230;28;20420;-72
2022/09/24 09:36:23;;;;;;;28.50;20.63;;;19.40;34.80;;;;;;5092779;28;20442;-73
2022/09/24 09:39:06;;;;;;;30.02;21.08;;;19.50;34.30;;;;;;5088552;28;20429;-72
2022/09/24 09:41:52;;;;;;;33.30;20.27;;;19.60;34.10;;;;;;5088577;28;20423;-72
2022/09/24 09:44:29;;;;;;;55.75;35.00;;;19.90;33.00;;;;;;5080607;28;20766;-73
2022/09/24 09:47:03;;;;;;;196.05;124.40;;;20.20;32.30;;;;;;5074866;28;20399;-73
2022/09/24 09:49:33;;;;;;;61.15;40.40;;;20.20;31.40;;;;;;5084027;28;20419;-71
2022/09/24 09:52:03;;;;;;;360.70;251.48;;;20.30;30.30;;;;;;5082768;28;20747;-71
2022/09/24 09:54:36;;;;;;;36.37;25.33;;;20.40;30.40;;;;;;5095476;28;20382;-71
2022/09/24 09:57:02;;;;;;;114.57;73.63;;;20.50;29.40;;;;;;5091700;28;20394;-73
2022/09/24 09:59:30;;;;;;;149.52;99.03;;;20.70;28.10;;;;;;5076184;28;20430;-73
2022/09/24 10:01:56;;;;;;;68.60;46.40;;;21.00;28.20;;;;;;5080025;28;20438;-73
2022/09/24 10:04:36;;;;;;;273.60;186.73;;;21.20;26.50;;;;;;5091991;22;20433;-74
2022/09/24 10:07:15;;;;;;;80.93;56.93;;;21.40;26.50;;;;;;5053616;28;20385;-75
2022/09/24 10:09:42;;;;;;;44.33;30.97;;;21.60;26.00;;;;;;5053930;28;20912;-74
2022/09/24 10:12:23;;;;;;;30.90;20.60;;;21.80;24.30;;;;;;5053601;28;20389;-73
2022/09/24 10:15:14;;;;;;;69.38;47.15;;;21.60;25.10;;;;;;5053944;28;20440;-73
2022/09/24 10:17:40;;;;;;;63.70;45.08;;;21.70;24.70;;;;;;5053352;28;20385;-74
2022/09/24 10:20:19;;;;;;;38.88;28.60;;;21.80;24.60;;;;;;5053654;28;20398;-74
2022/09/24 10:22:55;;;;;;;27.50;20.20;;;21.60;24.40;;;;;;5053548;28;20376;-74
2022/09/24 10:25:25;;;;;;;40.92;29.15;;;21.50;24.00;;;;;;5053548;28;20369;-73
2022/09/24 10:27:52;;;;;;;57.30;41.47;;;21.40;23.90;;;;;;5053978;28;20385;-73
2022/09/24 10:30:33;;;;;;;56.37;41.83;;;21.30;25.10;;;;;;5053873;28;20385;-74
2022/09/24 10:33:04;;;;;;;29.88;21.13;;;21.30;25.00;;;;;;5053222;28;20377;-73
2022/09/24 10:35:34;;;;;;;34.88;24.02;;;21.10;24.40;;;;;;5053762;28;20817;-74
2022/09/24 10:38:03;;;;;;;45.25;33.90;;;20.90;24.70;;;;;;5053605;28;20739;-73
2022/09/24 10:40:37;;;;;;;23.42;17.85;;;20.90;25.20;;;;;;5053251;28;20746;-74
2022/09/24 10:43:05;;;;;;;35.83;25.45;;;20.80;24.70;;;;;;5053038;28;20422;-73
2022/09/24 10:45:51;;;;;;;33.88;25.08;;;20.90;24.30;;;;;;5053031;28;20396;-73
2022/09/24 10:48:34;;;;;;;25.13;19.50;;;20.90;24.90;;;;;;5053011;28;20385;-74
2022/09/24 10:51:20;;;;;;;26.27;20.00;;;20.60;24.70;;;;;;5056938;28;20388;-73
2022/09/24 10:54:26;;;;;;;42.55;27.98;;;20.50;25.60;;;;;;5053014;28;20472;-74
2022/09/24 10:56:54;;;;;;;32.42;23.35;;;20.50;26.40;;;;;;5053357;28;20426;-74
2022/09/24 10:59:34;;;;;;;28.98;19.85;;;20.50;25.20;;;;;;5053076;28;20397;-74
2022/09/24 11:02:19;;;;;;;25.30;18.43;;;20.60;25.30;;;;;;5051796;28;20754;-75
2022/09/24 11:04:55;;;;;;;26.48;19.15;;;20.40;25.70;;;;;;5052494;28;20421;-75
2022/09/24 11:07:53;;;;;;;22.85;16.27;;;20.50;26.20;;;;;;5052990;28;20384;-75
2022/09/24 11:11:02;;;;;;;40.00;29.60;;;20.50;24.20;;;;;;5054282;28;20972;-73
2022/09/24 11:13:56;;;;;;;30.42;18.80;;;20.70;23.60;;;;;;5052891;28;20392;-74
2022/09/24 11:16:38;;;;;;;20.27;15.23;;;20.70;23.60;;;;;;5052749;28;20370;-75
2022/09/24 11:19:20;;;;;;;34.63;24.38;;;20.60;22.90;;;;;;5052692;28;20401;-75
2022/09/24 11:21:49;;;;;;;29.27;20.50;;;20.80;24.20;;;;;;5052443;28;20382;-74
2022/09/24 11:24:27;;;;;;;24.73;18.65;;;20.70;25.30;;;;;;5053247;28;20381;-74
2022/09/24 11:27:38;;;;;;;36.85;23.40;;;20.50;26.10;;;;;;5053182;28;20913;-74
2022/09/24 11:30:12;;;;;;;47.72;33.17;;;20.40;27.40;;;;;;5052409;28;20439;-75
2022/09/24 11:33:06;;;;;;;37.13;20.97;;;20.40;28.00;;;;;;5052110;28;20374;-74
2022/09/24 11:35:55;;;;;;;44.75;34.53;;;20.30;28.40;;;;;;5052659;28;20715;-74
2022/09/24 11:38:37;;;;;;;34.75;23.40;;;20.30;28.70;;;;;;5040757;28;20903;-75
2022/09/24 11:41:11;;;;;;;34.53;27.35;;;20.50;27.90;;;;;;5035189;28;20399;-73
2022/09/24 11:43:42;;;;;;;35.00;23.95;;;20.50;27.70;;;;;;5034364;28;20509;-74
2022/09/24 11:46:16;;;;;;;37.40;27.88;;;20.60;27.50;;;;;;5032119;28;20442;-74
2022/09/24 11:48:45;;;;;;;31.23;21.10;;;20.80;26.80;;;;;;5036556;28;20402;-74
2022/09/24 11:51:43;;;;;;;27.25;20.40;;;20.80;26.50;;;;;;5032550;28;20443;-75
2022/09/24 11:54:54;;;;;;;29.33;20.50;;;21.00;26.00;;;;;;5047690;28;20397;-75
2022/09/24 11:57:25;;;;;;;31.20;20.20;;;21.10;25.00;;;;;;4970294;28;20426;-75
2022/09/24 12:00:00;;;;;;;30.40;21.55;;;21.10;25.30;;;;;;4955439;28;20413;-76
2022/09/24 12:02:31;;;;;;;32.30;21.67;;;21.20;25.20;;;;;;4993013;28;20403;-74
2022/09/24 12:05:05;;;;;;;27.10;20.30;;;21.10;25.00;;;;;;5032240;28;20457;-75
2022/09/24 12:07:34;;;;;;;24.95;19.60;;;21.00;25.30;;;;;;5032128;28;20386;-75
2022/09/24 12:10:11;;;;;;;29.90;19.75;;;21.00;24.70;;;;;;5031958;28;20399;-75
2022/09/24 12:12:41;;;;;;;26.43;19.60;;;20.90;25.00;;;;;;5031675;28;20407;-74
2022/09/24 12:15:29;;;;;;;27.73;21.27;;;20.70;25.00;;;;;;5031500;28;20386;-75
2022/09/24 12:18:07;;;;;;;27.02;20.67;;;20.50;25.90;;;;;;5031767;28;20414;-75
2022/09/24 12:20:48;;;;;;;30.20;20.33;;;20.20;26.00;;;;;;5032195;28;20379;-71
2022/09/24 12:23:18;;;;;;;25.92;19.67;;;20.80;25.00;;;;;;5036604;28;20444;-74
2022/09/24 12:25:46;;;;;;;23.48;15.82;;;21.00;24.20;;;;;;5041865;28;20382;-75
2022/09/24 12:33:57;;;;;;;16.50;11.48;;;20.00;27.10;;;;;;5035644;28;20778;-74
2022/09/24 12:36:58;;;;;;;19.30;11.50;;;19.30;29.60;;;;;;5049366;28;20455;-74
2022/09/24 12:39:37;;;;;;;18.38;11.93;;;18.80;31.90;;;;;;5051718;28;20955;-76
2022/09/24 12:42:06;;;;;;;20.05;12.50;;;18.90;32.70;;;;;;5035301;28;20892;-75
2022/09/24 12:44:40;;;;;;;16.90;11.38;;;18.90;32.70;;;;;;5029678;28;20391;-74
2022/09/24 12:47:20;;;;;;;17.80;11.35;;;18.80;33.10;;;;;;5033105;28;20387;-73
2022/09/24 12:49:56;;;;;;;13.55;10.25;;;18.70;33.90;;;;;;5034255;28;20422;-73
2022/09/24 12:52:44;;;;;;;15.73;10.60;;;18.70;34.10;;;;;;5030217;28;20396;-74
2022/09/24 12:55:22;;;;;;;14.77;11.27;;;18.70;33.90;;;;;;5039555;28;20401;-75
2022/09/24 12:57:53;;;;;;;18.67;11.60;;;18.40;34.60;;;;;;5052222;28;20381;-74
2022/09/24 13:00:40;;;;;;;15.30;11.40;;;18.40;34.10;;;;;;5042918;28;20381;-75
2022/09/24 13:03:26;;;;;;;16.83;11.43;;;18.70;33.90;;;;;;5047228;28;20411;-76